createdAt,value
2023-05-19T00:00:14.917Z,8.80
2023-05-19T00:03:09.476Z,10.80
2023-05-19T00:05:45.823Z,9.10
2023-05-19T00:08:19.996Z,10.10
2023-05-19T00:10:53.118Z,11.00
2023-05-19T00:13:26.475Z,10.70
2023-05-19T00:15:59.470Z,8.60
2023-05-19T00:18:31.580Z,8.50
2023-05-19T00:21:03.772Z,9.70
2023-05-19T00:23:35.939Z,10.60
2023-05-19T00:26:08.004Z,8.00
2023-05-19T00:28:40.310Z,7.20
2023-05-19T00:31:12.376Z,10.30
2023-05-19T00:33:44.476Z,8.30
2023-05-19T00:36:16.718Z,8.50
2023-05-19T00:38:48.854Z,8.40
2023-05-19T00:41:21.124Z,7.70
2023-05-19T00:43:53.708Z,9.00
2023-05-19T00:46:26.020Z,7.10
2023-05-19T00:48:58.353Z,9.70
2023-05-19T00:51:31.507Z,8.70
2023-05-19T00:54:04.016Z,10.80
2023-05-19T00:56:36.390Z,7.40
2023-05-19T00:59:09.169Z,8.50
2023-05-19T01:01:41.918Z,8.20
2023-05-19T01:04:16.972Z,11.20
2023-05-19T01:06:54.981Z,8.70
2023-05-19T01:09:27.181Z,8.50
2023-05-19T01:11:59.900Z,9.40
2023-05-19T01:14:32.861Z,8.00
2023-05-19T01:17:15.305Z,9.80
2023-05-19T01:20:02.325Z,9.90
2023-05-19T01:22:55.087Z,6.70
2023-05-19T01:25:50.845Z,9.10
2023-05-19T01:28:47.743Z,6.90
2023-05-19T01:31:23.948Z,6.60
2023-05-19T01:33:58.181Z,7.80
2023-05-19T01:36:32.907Z,8.30
2023-05-19T01:39:05.927Z,8.30
2023-05-19T01:41:39.503Z,9.50
2023-05-19T01:44:14.762Z,6.80
2023-05-19T01:46:47.037Z,10.00
2023-05-19T01:49:19.050Z,7.80
2023-05-19T01:51:51.941Z,8.80
2023-05-19T01:54:24.030Z,7.70
2023-05-19T01:57:06.566Z,8.60
2023-05-19T01:59:53.736Z,8.60
2023-05-19T02:02:39.137Z,6.40
2023-05-19T02:05:19.956Z,6.30
2023-05-19T02:08:05.900Z,8.60
2023-05-19T02:10:43.671Z,7.60
2023-05-19T02:13:19.028Z,8.40
2023-05-19T02:15:53.401Z,9.70
2023-05-19T02:18:25.709Z,7.00
2023-05-19T02:20:57.795Z,8.00
2023-05-19T02:23:29.999Z,7.80
2023-05-19T02:26:02.741Z,9.70
2023-05-19T02:28:34.845Z,8.00
2023-05-19T02:31:09.134Z,8.30
2023-05-19T02:33:41.536Z,6.20
2023-05-19T02:36:15.022Z,7.90
2023-05-19T02:38:47.057Z,6.90
2023-05-19T02:41:19.269Z,9.10
2023-05-19T02:43:51.301Z,6.70
2023-05-19T02:46:23.414Z,6.90
2023-05-19T02:48:55.731Z,5.40
2023-05-19T02:51:27.821Z,6.30
2023-05-19T02:54:00.075Z,5.70
2023-05-19T02:56:32.341Z,7.70
2023-05-19T02:59:04.410Z,7.00
2023-05-19T03:01:37.882Z,5.80
2023-05-19T03:04:10.642Z,7.30
2023-05-19T03:06:45.441Z,5.60
2023-05-19T03:09:17.512Z,6.70
2023-05-19T03:11:49.621Z,5.60
2023-05-19T03:14:24.818Z,5.50
2023-05-19T03:16:57.319Z,8.40
2023-05-19T03:19:32.612Z,6.60
2023-05-19T03:22:05.117Z,8.30
2023-05-19T03:24:38.450Z,8.10
2023-05-19T03:27:11.168Z,7.10
2023-05-19T03:29:43.502Z,5.50
2023-05-19T03:32:15.726Z,5.30
2023-05-19T03:34:48.004Z,5.80
2023-05-19T03:37:20.393Z,7.60
2023-05-19T03:39:52.559Z,5.10
2023-05-19T03:42:27.362Z,6.20
2023-05-19T03:44:59.624Z,6.50
2023-05-19T03:47:32.866Z,5.60
2023-05-19T03:50:25.312Z,6.00
2023-05-19T03:53:01.833Z,6.00
2023-05-19T03:55:37.480Z,7.50
2023-05-19T03:58:10.874Z,6.30
2023-05-19T04:00:43.869Z,6.00
2023-05-19T04:03:16.169Z,5.50
2023-05-19T04:05:48.726Z,6.40
2023-05-19T04:08:21.045Z,5.80
2023-05-19T04:10:53.274Z,5.80
2023-05-19T04:13:25.877Z,4.60
2023-05-19T04:15:58.163Z,6.60
2023-05-19T04:18:31.714Z,6.70
2023-05-19T04:21:03.894Z,6.80
2023-05-19T04:23:36.050Z,4.70
2023-05-19T04:26:10.366Z,5.90
2023-05-19T04:28:45.000Z,7.50
2023-05-19T04:31:17.645Z,4.70
2023-05-19T04:33:50.308Z,5.90
2023-05-19T04:36:22.651Z,6.70
2023-05-19T04:39:02.958Z,5.50
2023-05-19T04:41:35.596Z,5.60
2023-05-19T04:44:09.194Z,3.90
2023-05-19T04:46:42.907Z,5.20
2023-05-19T04:49:15.654Z,5.80
2023-05-19T04:51:50.843Z,5.70
2023-05-19T04:54:29.506Z,6.00
2023-05-19T04:57:02.202Z,5.70
2023-05-19T04:59:35.115Z,6.10
2023-05-19T05:02:07.966Z,6.30
2023-05-19T05:04:44.261Z,5.50
2023-05-19T05:07:16.553Z,6.00
2023-05-19T05:09:49.385Z,6.20
2023-05-19T05:12:23.188Z,6.40
2023-05-19T05:14:56.686Z,6.90
2023-05-19T05:17:29.890Z,5.40
2023-05-19T05:20:03.404Z,6.20
2023-05-19T05:22:38.778Z,5.70
2023-05-19T05:25:14.779Z,6.70
2023-05-19T05:27:48.063Z,8.10
2023-05-19T05:30:20.398Z,7.20
2023-05-19T05:32:52.824Z,7.90
2023-05-19T05:35:39.463Z,7.50
2023-05-19T05:38:12.676Z,8.00
2023-05-19T05:40:45.068Z,6.10
2023-05-19T05:43:17.449Z,6.90
2023-05-19T05:45:53.806Z,6.40
2023-05-19T05:48:27.388Z,6.30
2023-05-19T05:51:01.174Z,6.90
2023-05-19T05:53:43.156Z,6.50
2023-05-19T05:56:17.459Z,7.40
2023-05-19T05:58:54.486Z,6.70
2023-05-19T06:01:26.863Z,8.40
2023-05-19T06:03:59.382Z,7.80
2023-05-19T06:06:32.921Z,10.30
2023-05-19T06:09:06.816Z,9.60
2023-05-19T06:11:39.121Z,8.90
2023-05-19T06:14:11.679Z,8.20
2023-05-19T06:17:09.691Z,11.50
2023-05-19T06:19:42.130Z,10.60
2023-05-19T06:22:14.627Z,9.70
2023-05-19T06:24:46.846Z,10.10
2023-05-19T06:27:19.237Z,9.20
2023-05-19T06:29:52.252Z,10.70
2023-05-19T06:32:26.603Z,10.10
2023-05-19T06:34:58.964Z,10.50
2023-05-19T06:37:31.232Z,10.60
2023-05-19T06:40:04.363Z,10.40
2023-05-19T06:42:37.269Z,10.10
2023-05-19T06:45:22.507Z,9.70
2023-05-19T06:47:58.364Z,10.70
2023-05-19T06:50:31.187Z,10.60
2023-05-19T06:53:03.788Z,9.20
2023-05-19T06:55:43.870Z,10.70
2023-05-19T06:58:24.605Z,12.90
2023-05-19T07:00:57.377Z,11.90
2023-05-19T07:03:31.436Z,12.10
2023-05-19T07:06:05.743Z,13.00
2023-05-19T07:11:12.523Z,14.90
2023-05-19T07:13:45.413Z,11.70
2023-05-19T07:16:18.105Z,14.30
2023-05-19T07:18:50.370Z,14.50
2023-05-19T07:21:22.630Z,14.40
2023-05-19T07:23:55.481Z,12.70
2023-05-19T07:26:28.213Z,14.10
2023-05-19T07:29:00.559Z,12.50
2023-05-19T07:31:32.886Z,13.30
2023-05-19T07:34:06.538Z,14.70
2023-05-19T07:36:38.712Z,15.30
2023-05-19T07:39:11.183Z,13.40
2023-05-19T07:41:43.661Z,15.60
2023-05-19T07:44:15.825Z,14.70
2023-05-19T07:46:48.095Z,14.20
2023-05-19T07:49:20.585Z,14.70
2023-05-19T07:51:53.015Z,14.00
2023-05-19T07:54:25.125Z,12.60
2023-05-19T07:56:57.551Z,13.80
2023-05-19T07:59:29.847Z,13.80
2023-05-19T08:02:02.232Z,13.90
2023-05-19T08:04:34.802Z,11.10
2023-05-19T08:07:07.132Z,11.90
2023-05-19T08:09:39.578Z,15.10
2023-05-19T08:12:11.853Z,10.90
2023-05-19T08:14:44.021Z,12.20
2023-05-19T08:17:16.460Z,14.60
2023-05-19T08:19:48.715Z,13.70
2023-05-19T08:22:20.915Z,15.80
2023-05-19T08:24:53.007Z,14.00
2023-05-19T08:27:25.367Z,13.90
2023-05-19T08:29:57.551Z,13.00
2023-05-19T08:32:29.717Z,13.40
2023-05-19T08:35:01.941Z,13.60
2023-05-19T08:37:34.258Z,14.10
2023-05-19T08:40:09.077Z,14.20
2023-05-19T08:42:41.410Z,14.20
2023-05-19T08:45:14.348Z,13.20
2023-05-19T08:47:48.812Z,15.50
2023-05-19T08:50:36.748Z,17.40
2023-05-19T08:53:28.969Z,13.70
2023-05-19T08:56:11.428Z,16.10
2023-05-19T08:58:44.349Z,13.20
2023-05-19T09:01:18.191Z,13.30
2023-05-19T09:03:50.948Z,14.90
2023-05-19T09:06:23.382Z,14.40
2023-05-19T09:08:58.019Z,19.80
2023-05-19T09:11:30.747Z,14.40
2023-05-19T09:14:02.850Z,14.60
2023-05-19T09:16:35.793Z,14.50
2023-05-19T09:19:15.637Z,15.50
2023-05-19T09:21:47.747Z,13.30
2023-05-19T09:24:20.360Z,15.30
2023-05-19T09:26:52.410Z,14.30
2023-05-19T09:29:25.154Z,16.90
2023-05-19T09:32:01.160Z,12.70
2023-05-19T09:34:33.838Z,14.70
2023-05-19T09:37:06.111Z,14.00
2023-05-19T09:39:39.963Z,17.40
2023-05-19T09:42:12.124Z,13.00
2023-05-19T09:44:44.329Z,15.40
2023-05-19T09:47:18.072Z,15.50
2023-05-19T09:49:52.284Z,13.80
2023-05-19T09:52:24.556Z,16.90
2023-05-19T09:54:58.093Z,15.00
2023-05-19T09:57:34.610Z,16.20
2023-05-19T10:00:25.998Z,14.80
2023-05-19T10:02:58.928Z,14.40
2023-05-19T10:05:32.700Z,18.60
2023-05-19T10:08:10.534Z,18.50
2023-05-19T10:10:42.751Z,16.30
2023-05-19T10:13:15.710Z,15.40
2023-05-19T10:18:29.589Z,15.50
2023-05-19T10:21:03.716Z,17.20
2023-05-19T10:23:35.941Z,18.00
2023-05-19T10:26:09.780Z,14.40
2023-05-19T10:28:44.650Z,17.50
2023-05-19T10:31:23.498Z,14.20
2023-05-19T10:34:15.631Z,15.60
2023-05-19T10:36:51.779Z,16.60
2023-05-19T10:39:27.964Z,17.00
2023-05-19T10:42:10.981Z,16.30
2023-05-19T10:44:59.916Z,22.10
2023-05-19T10:47:32.703Z,18.50
2023-05-19T10:50:06.847Z,17.60
2023-05-19T10:52:41.966Z,17.00
2023-05-19T10:55:17.765Z,19.20
2023-05-19T10:57:58.166Z,18.90
2023-05-19T11:00:34.890Z,21.20
2023-05-19T11:03:17.906Z,19.10
2023-05-19T11:05:52.515Z,17.70
2023-05-19T11:08:36.542Z,19.50
2023-05-19T11:11:17.809Z,19.00
2023-05-19T11:13:55.183Z,19.10
2023-05-19T11:16:35.867Z,18.10
2023-05-19T11:19:09.529Z,18.70
2023-05-19T11:21:55.036Z,19.50
2023-05-19T11:24:44.795Z,18.50
2023-05-19T11:27:29.193Z,19.70
2023-05-19T11:30:02.488Z,22.70
2023-05-19T11:32:36.061Z,22.30
2023-05-19T11:35:10.460Z,19.70
2023-05-19T11:37:43.811Z,21.60
2023-05-19T11:40:18.646Z,18.40
2023-05-19T11:42:50.915Z,20.60
2023-05-19T11:45:29.106Z,22.20
2023-05-19T11:48:04.436Z,25.10
2023-05-19T11:50:38.451Z,20.70
2023-05-19T11:53:15.007Z,19.10
2023-05-19T11:55:49.207Z,16.30
2023-05-19T11:58:29.119Z,16.10
2023-05-19T12:01:06.834Z,17.40
2023-05-19T12:03:39.144Z,17.90
2023-05-19T12:06:13.659Z,19.70
2023-05-19T12:08:46.431Z,19.80
2023-05-19T12:11:20.120Z,19.50
2023-05-19T12:13:56.571Z,24.50
2023-05-19T12:16:35.784Z,18.70
2023-05-19T12:19:09.711Z,19.90
2023-05-19T12:21:42.392Z,21.70
2023-05-19T12:24:14.811Z,21.10
2023-05-19T12:26:47.382Z,20.30
2023-05-19T12:29:19.482Z,21.10
2023-05-19T12:31:51.629Z,24.80
2023-05-19T12:34:24.389Z,21.10
2023-05-19T12:36:56.806Z,23.00
2023-05-19T12:39:29.604Z,23.10
2023-05-19T12:42:09.002Z,23.50
2023-05-19T12:44:44.082Z,23.50
2023-05-19T12:47:17.120Z,26.00
2023-05-19T12:50:02.681Z,25.80
2023-05-19T12:52:36.226Z,26.60
2023-05-19T12:55:11.884Z,26.80
2023-05-19T12:57:46.027Z,24.40
2023-05-19T13:00:22.040Z,24.70
2023-05-19T13:03:02.975Z,23.20
2023-05-19T13:05:39.661Z,24.10
2023-05-19T13:08:13.591Z,22.20
2023-05-19T13:10:47.421Z,24.00
2023-05-19T13:13:19.999Z,21.60
2023-05-19T13:15:52.469Z,20.30
2023-05-19T13:18:24.662Z,20.70
2023-05-19T13:20:57.123Z,17.80
2023-05-19T13:23:29.577Z,20.60
2023-05-19T13:26:01.796Z,19.20
2023-05-19T13:28:34.010Z,18.30
2023-05-19T13:31:06.427Z,14.30
2023-05-19T13:33:38.816Z,16.30
2023-05-19T13:36:10.988Z,18.40
2023-05-19T13:38:43.062Z,21.80
2023-05-19T13:41:16.052Z,23.80
2023-05-19T13:43:48.456Z,25.30
2023-05-19T13:46:26.635Z,21.80
2023-05-19T13:49:05.238Z,21.00
2023-05-19T13:51:37.776Z,22.00
2023-05-19T13:54:11.609Z,24.30
2023-05-19T13:56:46.110Z,29.40
2023-05-19T13:59:18.649Z,28.40
2023-05-19T14:01:50.784Z,29.90
2023-05-19T14:04:23.874Z,27.40
2023-05-19T14:06:57.255Z,24.00
2023-05-19T14:09:29.870Z,27.90
2023-05-19T14:12:02.431Z,23.50
2023-05-19T14:14:34.871Z,24.30
2023-05-19T14:17:07.509Z,22.80
2023-05-19T14:19:39.630Z,30.70
2023-05-19T14:22:13.555Z,28.90
2023-05-19T14:24:45.596Z,36.70
2023-05-19T14:27:17.753Z,29.30
2023-05-19T14:29:50.111Z,53.80
2023-05-19T14:32:23.247Z,31.80
2023-05-19T14:34:55.748Z,20.00
2023-05-19T14:37:29.111Z,18.20
2023-05-19T14:40:04.649Z,27.80
2023-05-19T14:42:36.820Z,20.40
2023-05-19T14:45:10.877Z,20.00
2023-05-19T14:47:42.983Z,17.80
2023-05-19T14:50:15.111Z,17.80
2023-05-19T14:52:47.209Z,16.60
2023-05-19T14:55:19.446Z,62.90
2023-05-19T14:57:51.446Z,35.40
2023-05-19T15:00:26.263Z,26.40
2023-05-19T15:02:58.598Z,24.90
2023-05-19T15:05:30.744Z,22.70
2023-05-19T15:08:06.053Z,24.80
2023-05-19T15:10:38.457Z,23.90
2023-05-19T15:13:12.031Z,18.70
2023-05-19T15:15:44.373Z,19.10
2023-05-19T15:18:18.920Z,24.90
2023-05-19T15:20:51.194Z,24.10
2023-05-19T15:23:23.380Z,24.10
2023-05-19T15:25:55.619Z,22.70
2023-05-19T15:28:28.216Z,20.10
2023-05-19T15:31:00.382Z,17.60
2023-05-19T15:33:32.527Z,15.70
2023-05-19T15:36:04.751Z,17.50
2023-05-19T15:38:38.126Z,16.50
2023-05-19T15:41:11.924Z,18.90
2023-05-19T15:43:46.554Z,24.30
2023-05-19T15:46:19.922Z,16.50
2023-05-19T15:48:52.025Z,18.90
2023-05-19T15:51:24.207Z,26.30
2023-05-19T15:53:56.311Z,18.60
2023-05-19T15:56:28.390Z,24.00
2023-05-19T15:59:00.488Z,28.50
2023-05-19T16:01:32.723Z,50.10
2023-05-19T16:04:05.164Z,46.30
2023-05-19T16:06:37.438Z,70.50
2023-05-19T16:09:09.671Z,117.30
2023-05-19T16:11:41.884Z,70.00
2023-05-19T16:14:14.459Z,45.50
2023-05-19T16:16:46.684Z,65.50
2023-05-19T16:19:18.965Z,95.40
2023-05-19T16:21:51.170Z,54.50
2023-05-19T16:24:23.234Z,61.00
2023-05-19T16:26:55.773Z,31.40
2023-05-19T16:29:27.964Z,27.70
2023-05-19T16:32:00.282Z,37.80
2023-05-19T16:34:32.737Z,25.10
2023-05-19T16:37:05.117Z,18.60
2023-05-19T16:39:38.261Z,21.50
2023-05-19T16:42:10.461Z,25.70
2023-05-19T16:44:43.508Z,46.70
2023-05-19T16:47:15.713Z,27.30
2023-05-19T16:49:47.890Z,20.60
2023-05-19T16:52:21.404Z,21.10
2023-05-19T16:54:53.553Z,23.20
2023-05-19T16:57:25.894Z,22.90
2023-05-19T16:59:57.992Z,28.20
2023-05-19T17:02:30.361Z,33.50
2023-05-19T17:05:02.548Z,41.30
2023-05-19T17:07:34.621Z,36.00
2023-05-19T17:10:07.602Z,28.80
2023-05-19T17:12:39.729Z,24.80
2023-05-19T17:15:13.232Z,50.40
2023-05-19T17:17:45.409Z,43.70
2023-05-19T17:20:17.971Z,48.70
2023-05-19T17:22:50.131Z,39.00
2023-05-19T17:25:22.302Z,48.10
2023-05-19T17:27:56.005Z,43.50
2023-05-19T17:30:28.378Z,34.60
2023-05-19T17:33:01.217Z,30.50
2023-05-19T17:35:34.398Z,77.40
2023-05-19T17:38:06.875Z,63.20
2023-05-19T17:40:41.877Z,62.90
2023-05-19T17:43:14.367Z,95.00
2023-05-19T17:45:46.742Z,74.60
2023-05-19T17:48:19.114Z,57.50
2023-05-19T17:50:51.708Z,40.90
2023-05-19T17:53:24.656Z,51.80
2023-05-19T17:56:01.571Z,42.10
2023-05-19T17:58:35.176Z,50.80
2023-05-19T18:01:07.978Z,36.40
2023-05-19T18:03:41.513Z,51.30
2023-05-19T18:06:14.000Z,57.20
2023-05-19T18:08:50.531Z,63.20
2023-05-19T18:11:24.014Z,89.30
2023-05-19T18:13:56.391Z,54.10
2023-05-19T18:16:29.708Z,33.40
2023-05-19T18:19:02.061Z,30.40
2023-05-19T18:21:34.424Z,20.50
2023-05-19T18:24:07.232Z,18.40
2023-05-19T18:26:42.282Z,15.40
2023-05-19T18:29:14.815Z,19.90
2023-05-19T18:31:47.120Z,16.60
2023-05-19T18:34:19.277Z,17.60
2023-05-19T18:36:51.543Z,14.60
2023-05-19T18:39:23.875Z,13.50
2023-05-19T18:41:56.216Z,15.80
2023-05-19T18:44:28.505Z,14.60
2023-05-19T18:47:00.771Z,20.50
2023-05-19T18:49:33.181Z,16.80
2023-05-19T18:52:05.559Z,15.70
2023-05-19T18:54:37.899Z,17.50
2023-05-19T18:57:10.416Z,18.40
2023-05-19T18:59:42.842Z,16.80
2023-05-19T19:02:15.166Z,17.10
2023-05-19T19:04:47.648Z,31.20
2023-05-19T19:07:20.178Z,28.80
2023-05-19T19:09:53.208Z,24.80
2023-05-19T19:12:26.427Z,27.10
2023-05-19T19:15:00.289Z,23.80
2023-05-19T19:17:35.714Z,28.90
2023-05-19T19:20:11.247Z,38.30
2023-05-19T19:22:43.591Z,49.60
2023-05-19T19:25:18.168Z,33.50
2023-05-19T19:27:50.726Z,29.00
2023-05-19T19:30:23.045Z,31.50
2023-05-19T19:32:57.121Z,34.00
2023-05-19T19:35:29.315Z,46.30
2023-05-19T19:38:04.405Z,42.30
2023-05-19T19:40:37.541Z,34.60
2023-05-19T19:43:10.107Z,31.60
2023-05-19T19:45:42.539Z,26.70
2023-05-19T19:48:23.394Z,26.90
2023-05-19T19:50:58.230Z,24.90
2023-05-19T19:53:30.924Z,32.90
2023-05-19T19:56:07.361Z,28.20
2023-05-19T19:58:39.631Z,26.30
2023-05-19T20:01:27.937Z,30.50
2023-05-19T20:04:01.059Z,29.50
2023-05-19T20:06:33.454Z,30.70
2023-05-19T20:09:06.031Z,32.60
2023-05-19T20:11:38.559Z,33.70
2023-05-19T20:14:10.932Z,34.60
2023-05-19T20:16:43.211Z,33.00
2023-05-19T20:19:15.616Z,34.30
2023-05-19T20:21:47.991Z,33.00
2023-05-19T20:24:20.164Z,34.20
2023-05-19T20:26:52.310Z,32.60
2023-05-19T20:29:24.907Z,36.40
2023-05-19T20:31:59.210Z,38.30
2023-05-19T20:34:31.435Z,35.10
2023-05-19T20:37:03.624Z,34.40
2023-05-19T20:39:35.848Z,33.40
2023-05-19T20:42:09.038Z,32.80
2023-05-19T20:44:41.277Z,39.20
2023-05-19T20:47:13.431Z,38.10
2023-05-19T20:49:45.631Z,36.40
2023-05-19T20:52:20.382Z,41.30
2023-05-19T20:54:52.698Z,39.00
2023-05-19T20:57:26.143Z,39.90
2023-05-19T21:00:48.932Z,40.70
2023-05-19T21:03:24.322Z,41.10
2023-05-19T21:05:56.793Z,40.30
2023-05-19T21:08:29.959Z,40.70
2023-05-19T21:11:02.198Z,37.50
2023-05-19T21:13:34.503Z,38.80
2023-05-19T21:16:09.897Z,35.20
2023-05-19T21:18:42.145Z,36.10
2023-05-19T21:21:14.320Z,35.60
2023-05-19T21:23:46.414Z,32.70
2023-05-19T21:26:20.051Z,32.10
2023-05-19T21:28:52.161Z,32.40
2023-05-19T21:31:24.272Z,32.40
2023-05-19T21:33:56.563Z,33.90
2023-05-19T21:36:28.975Z,36.10
2023-05-19T21:39:03.821Z,32.40
2023-05-19T21:41:35.862Z,42.30
2023-05-19T21:44:08.003Z,37.00
2023-05-19T21:46:45.068Z,37.50
2023-05-19T21:49:17.613Z,36.00
2023-05-19T21:51:49.736Z,38.50
2023-05-19T21:54:21.832Z,30.60
2023-05-19T21:56:54.004Z,24.70
2023-05-19T21:59:26.558Z,28.50
2023-05-19T22:01:59.012Z,30.70
2023-05-19T22:04:32.874Z,30.20
2023-05-19T22:07:08.291Z,29.20
2023-05-19T22:09:40.433Z,30.50
2023-05-19T22:12:12.730Z,29.90
2023-05-19T22:14:45.058Z,30.90
2023-05-19T22:17:17.276Z,30.70
2023-05-19T22:19:49.532Z,30.00
2023-05-19T22:22:21.745Z,31.20
2023-05-19T22:24:53.929Z,27.10
2023-05-19T22:27:26.157Z,27.40
2023-05-19T22:29:59.913Z,28.60
2023-05-19T22:32:32.339Z,26.20
2023-05-19T22:35:06.622Z,30.10
2023-05-19T22:37:38.802Z,29.40
2023-05-19T22:40:14.801Z,31.90
2023-05-19T22:42:46.943Z,32.10
2023-05-19T22:45:19.806Z,33.30
2023-05-19T22:47:52.547Z,37.10
2023-05-19T22:50:24.930Z,26.90
2023-05-19T22:52:57.116Z,32.50
2023-05-19T22:55:29.309Z,30.30
2023-05-19T22:58:01.492Z,34.00
2023-05-19T23:00:33.679Z,33.00
2023-05-19T23:03:05.773Z,30.70
2023-05-19T23:05:37.986Z,33.30
2023-05-19T23:08:10.189Z,28.70
2023-05-19T23:10:42.230Z,27.00
2023-05-19T23:13:14.292Z,28.00
2023-05-19T23:15:46.306Z,28.50
2023-05-19T23:18:18.422Z,27.80
2023-05-19T23:20:50.586Z,27.60
2023-05-19T23:23:22.788Z,28.80
2023-05-19T23:25:54.892Z,27.70
2023-05-19T23:28:26.986Z,26.20
2023-05-19T23:30:59.093Z,26.80
2023-05-19T23:33:31.134Z,29.20
2023-05-19T23:36:08.817Z,28.10
2023-05-19T23:38:41.129Z,28.60
2023-05-19T23:41:13.187Z,29.80
2023-05-19T23:43:45.271Z,29.40
2023-05-19T23:46:17.408Z,31.00
2023-05-19T23:48:49.705Z,30.30
2023-05-19T23:51:21.757Z,32.10
2023-05-19T23:53:53.918Z,32.20
2023-05-19T23:56:26.132Z,37.40
2023-05-19T23:58:58.229Z,32.10
